sensor_id;sensor_type;location;lat;lon;timestamp;P1;durP1;ratioP1;P2;durP2;ratioP2
9972;SDS011;5027;53.560;10.062;2023-06-19T00:00:28;7.10;;;5.73;;
9972;SDS011;5027;53.560;10.062;2023-06-19T00:02:56;6.27;;;5.67;;
9972;SDS011;5027;53.560;10.062;2023-06-19T00:05:23;6.60;;;5.77;;
9972;SDS011;5027;53.560;10.062;2023-06-19T00:07:51;5.87;;;5.37;;
9972;SDS011;5027;53.560;10.062;2023-06-19T00:10:18;6.67;;;6.07;;
9972;SDS011;5027;53.560;10.062;2023-06-19T00:12:45;7.93;;;5.87;;
9972;SDS011;5027;53.560;10.062;2023-06-19T00:15:11;5.73;;;5.23;;
9972;SDS011;5027;53.560;10.062;2023-06-19T00:17:38;8.30;;;5.80;;
9972;SDS011;5027;53.560;10.062;2023-06-19T00:20:05;5.90;;;5.40;;
9972;SDS011;5027;53.560;10.062;2023-06-19T00:22:32;5.67;;;5.17;;
9972;SDS011;5027;53.560;10.062;2023-06-19T00:24:59;6.03;;;5.53;;
9972;SDS011;5027;53.560;10.062;2023-06-19T00:27:26;11.07;;;5.50;;
9972;SDS011;5027;53.560;10.062;2023-06-19T00:29:53;6.33;;;5.70;;
9972;SDS011;5027;53.560;10.062;2023-06-19T00:32:19;5.87;;;5.37;;
9972;SDS011;5027;53.560;10.062;2023-06-19T00:34:47;6.63;;;5.63;;
9972;SDS011;5027;53.560;10.062;2023-06-19T00:37:14;5.93;;;5.43;;
9972;SDS011;5027;53.560;10.062;2023-06-19T00:39:41;6.10;;;5.60;;
9972;SDS011;5027;53.560;10.062;2023-06-19T00:42:10;6.23;;;5.67;;
9972;SDS011;5027;53.560;10.062;2023-06-19T00:44:37;6.93;;;6.27;;
9972;SDS011;5027;53.560;10.062;2023-06-19T00:47:03;6.30;;;5.70;;
9972;SDS011;5027;53.560;10.062;2023-06-19T00:49:30;7.60;;;5.77;;
9972;SDS011;5027;53.560;10.062;2023-06-19T00:51:58;6.30;;;5.70;;
9972;SDS011;5027;53.560;10.062;2023-06-19T00:54:25;6.23;;;5.70;;
9972;SDS011;5027;53.560;10.062;2023-06-19T00:56:52;6.93;;;5.93;;
9972;SDS011;5027;53.560;10.062;2023-06-19T00:59:20;6.33;;;5.73;;
9972;SDS011;5027;53.560;10.062;2023-06-19T01:01:47;6.23;;;5.73;;
9972;SDS011;5027;53.560;10.062;2023-06-19T01:04:14;7.43;;;6.83;;
9972;SDS011;5027;53.560;10.062;2023-06-19T01:06:55;7.20;;;6.60;;
9972;SDS011;5027;53.560;10.062;2023-06-19T01:09:28;6.00;;;5.50;;
9972;SDS011;5027;53.560;10.062;2023-06-19T01:12:01;7.07;;;6.40;;
9972;SDS011;5027;53.560;10.062;2023-06-19T01:14:35;6.40;;;5.80;;
9972;SDS011;5027;53.560;10.062;2023-06-19T01:17:16;7.40;;;6.73;;
9972;SDS011;5027;53.560;10.062;2023-06-19T01:19:42;6.47;;;5.87;;
9972;SDS011;5027;53.560;10.062;2023-06-19T01:22:09;6.47;;;5.87;;
9972;SDS011;5027;53.560;10.062;2023-06-19T01:24:36;7.03;;;6.40;;
9972;SDS011;5027;53.560;10.062;2023-06-19T01:27:03;9.10;;;6.53;;
9972;SDS011;5027;53.560;10.062;2023-06-19T01:29:30;7.57;;;6.67;;
9972;SDS011;5027;53.560;10.062;2023-06-19T01:31:59;6.50;;;5.80;;
9972;SDS011;5027;53.560;10.062;2023-06-19T01:34:33;7.47;;;6.70;;
9972;SDS011;5027;53.560;10.062;2023-06-19T01:37:04;12.00;;;6.70;;
9972;SDS011;5027;53.560;10.062;2023-06-19T01:39:33;6.83;;;6.23;;
9972;SDS011;5027;53.560;10.062;2023-06-19T01:42:02;7.27;;;6.57;;
9972;SDS011;5027;53.560;10.062;2023-06-19T01:44:29;7.00;;;6.30;;
9972;SDS011;5027;53.560;10.062;2023-06-19T01:46:56;7.03;;;6.43;;
9972;SDS011;5027;53.560;10.062;2023-06-19T01:49:23;6.83;;;6.23;;
9972;SDS011;5027;53.560;10.062;2023-06-19T01:51:50;7.17;;;6.47;;
9972;SDS011;5027;53.560;10.062;2023-06-19T01:54:16;7.10;;;6.20;;
9972;SDS011;5027;53.560;10.062;2023-06-19T01:56:43;7.20;;;6.60;;
9972;SDS011;5027;53.560;10.062;2023-06-19T01:59:10;6.77;;;6.27;;
9972;SDS011;5027;53.560;10.062;2023-06-19T02:01:37;7.33;;;6.17;;
9972;SDS011;5027;53.560;10.062;2023-06-19T02:04:03;6.70;;;6.10;;
9972;SDS011;5027;53.560;10.062;2023-06-19T02:06:30;7.27;;;6.57;;
9972;SDS011;5027;53.560;10.062;2023-06-19T02:08:57;6.13;;;5.53;;
9972;SDS011;5027;53.560;10.062;2023-06-19T02:11:24;7.00;;;6.40;;
9972;SDS011;5027;53.560;10.062;2023-06-19T02:13:53;6.93;;;6.30;;
9972;SDS011;5027;53.560;10.062;2023-06-19T02:16:20;6.80;;;6.20;;
9972;SDS011;5027;53.560;10.062;2023-06-19T02:18:47;7.37;;;6.77;;
9972;SDS011;5027;53.560;10.062;2023-06-19T02:21:14;7.53;;;6.73;;
9972;SDS011;5027;53.560;10.062;2023-06-19T02:23:41;7.70;;;7.00;;
9972;SDS011;5027;53.560;10.062;2023-06-19T02:26:08;7.30;;;6.60;;
9972;SDS011;5027;53.560;10.062;2023-06-19T02:28:34;8.17;;;7.03;;
9972;SDS011;5027;53.560;10.062;2023-06-19T02:31:01;7.40;;;6.60;;
9972;SDS011;5027;53.560;10.062;2023-06-19T02:33:28;7.57;;;6.87;;
9972;SDS011;5027;53.560;10.062;2023-06-19T02:35:55;7.77;;;6.80;;
9972;SDS011;5027;53.560;10.062;2023-06-19T02:38:25;7.63;;;6.93;;
9972;SDS011;5027;53.560;10.062;2023-06-19T02:40:53;7.20;;;6.50;;
9972;SDS011;5027;53.560;10.062;2023-06-19T02:43:20;6.80;;;6.30;;
9972;SDS011;5027;53.560;10.062;2023-06-19T02:45:46;7.20;;;6.50;;
9972;SDS011;5027;53.560;10.062;2023-06-19T02:48:13;9.00;;;6.47;;
9972;SDS011;5027;53.560;10.062;2023-06-19T02:50:40;7.60;;;6.90;;
9972;SDS011;5027;53.560;10.062;2023-06-19T02:53:07;8.37;;;6.87;;
9972;SDS011;5027;53.560;10.062;2023-06-19T02:55:34;7.73;;;7.03;;
9972;SDS011;5027;53.560;10.062;2023-06-19T02:58:02;9.33;;;7.07;;
9972;SDS011;5027;53.560;10.062;2023-06-19T03:00:29;8.90;;;7.23;;
9972;SDS011;5027;53.560;10.062;2023-06-19T03:02:56;8.23;;;7.10;;
9972;SDS011;5027;53.560;10.062;2023-06-19T03:05:24;8.23;;;7.43;;
9972;SDS011;5027;53.560;10.062;2023-06-19T03:07:54;8.10;;;7.40;;
9972;SDS011;5027;53.560;10.062;2023-06-19T03:10:21;8.07;;;7.00;;
9972;SDS011;5027;53.560;10.062;2023-06-19T03:12:49;7.43;;;6.73;;
9972;SDS011;5027;53.560;10.062;2023-06-19T03:15:15;7.43;;;6.83;;
9972;SDS011;5027;53.560;10.062;2023-06-19T03:17:46;7.93;;;7.23;;
9972;SDS011;5027;53.560;10.062;2023-06-19T03:20:13;7.17;;;6.57;;
9972;SDS011;5027;53.560;10.062;2023-06-19T03:22:47;7.73;;;7.03;;
9972;SDS011;5027;53.560;10.062;2023-06-19T03:25:15;7.37;;;6.70;;
9972;SDS011;5027;53.560;10.062;2023-06-19T03:27:42;9.57;;;7.17;;
9972;SDS011;5027;53.560;10.062;2023-06-19T03:30:09;8.20;;;7.40;;
9972;SDS011;5027;53.560;10.062;2023-06-19T03:32:40;7.73;;;7.13;;
9972;SDS011;5027;53.560;10.062;2023-06-19T03:35:13;8.20;;;7.27;;
9972;SDS011;5027;53.560;10.062;2023-06-19T03:37:42;7.87;;;7.17;;
9972;SDS011;5027;53.560;10.062;2023-06-19T03:40:10;7.60;;;6.80;;
9972;SDS011;5027;53.560;10.062;2023-06-19T03:42:42;7.63;;;6.93;;
9972;SDS011;5027;53.560;10.062;2023-06-19T03:45:10;7.53;;;6.87;;
9972;SDS011;5027;53.560;10.062;2023-06-19T03:47:37;7.90;;;7.20;;
9972;SDS011;5027;53.560;10.062;2023-06-19T03:50:05;7.10;;;6.50;;
9972;SDS011;5027;53.560;10.062;2023-06-19T03:52:46;8.43;;;7.73;;
9972;SDS011;5027;53.560;10.062;2023-06-19T03:55:13;8.40;;;7.60;;
9972;SDS011;5027;53.560;10.062;2023-06-19T03:57:40;7.63;;;6.93;;
9972;SDS011;5027;53.560;10.062;2023-06-19T04:00:06;8.57;;;7.77;;
9972;SDS011;5027;53.560;10.062;2023-06-19T04:02:37;8.30;;;7.40;;
9972;SDS011;5027;53.560;10.062;2023-06-19T04:05:05;8.73;;;7.60;;
9972;SDS011;5027;53.560;10.062;2023-06-19T04:07:32;8.17;;;7.43;;
9972;SDS011;5027;53.560;10.062;2023-06-19T04:09:59;8.17;;;7.47;;
9972;SDS011;5027;53.560;10.062;2023-06-19T04:12:25;10.10;;;8.63;;
9972;SDS011;5027;53.560;10.062;2023-06-19T04:14:52;14.97;;;7.37;;
9972;SDS011;5027;53.560;10.062;2023-06-19T04:17:19;9.17;;;8.00;;
9972;SDS011;5027;53.560;10.062;2023-06-19T04:19:47;8.40;;;7.60;;
9972;SDS011;5027;53.560;10.062;2023-06-19T04:22:14;7.40;;;6.80;;
9972;SDS011;5027;53.560;10.062;2023-06-19T04:24:41;8.57;;;7.70;;
9972;SDS011;5027;53.560;10.062;2023-06-19T04:27:08;8.53;;;7.73;;
9972;SDS011;5027;53.560;10.062;2023-06-19T04:29:34;9.00;;;8.13;;
9972;SDS011;5027;53.560;10.062;2023-06-19T04:32:01;8.27;;;7.57;;
9972;SDS011;5027;53.560;10.062;2023-06-19T04:34:41;8.60;;;7.80;;
9972;SDS011;5027;53.560;10.062;2023-06-19T04:37:12;8.50;;;7.67;;
9972;SDS011;5027;53.560;10.062;2023-06-19T04:39:39;8.80;;;8.00;;
9972;SDS011;5027;53.560;10.062;2023-06-19T04:42:06;9.13;;;8.17;;
9972;SDS011;5027;53.560;10.062;2023-06-19T04:44:32;8.07;;;7.27;;
9972;SDS011;5027;53.560;10.062;2023-06-19T04:47:00;7.97;;;7.27;;
9972;SDS011;5027;53.560;10.062;2023-06-19T04:49:30;8.00;;;7.30;;
9972;SDS011;5027;53.560;10.062;2023-06-19T04:51:57;7.80;;;7.07;;
9972;SDS011;5027;53.560;10.062;2023-06-19T04:54:27;10.03;;;7.70;;
9972;SDS011;5027;53.560;10.062;2023-06-19T04:56:53;8.63;;;7.83;;
9972;SDS011;5027;53.560;10.062;2023-06-19T04:59:20;8.47;;;7.73;;
9972;SDS011;5027;53.560;10.062;2023-06-19T05:01:47;9.73;;;8.70;;
9972;SDS011;5027;53.560;10.062;2023-06-19T05:04:14;9.40;;;7.87;;
9972;SDS011;5027;53.560;10.062;2023-06-19T05:06:41;8.90;;;7.67;;
9972;SDS011;5027;53.560;10.062;2023-06-19T05:09:08;8.60;;;7.80;;
9972;SDS011;5027;53.560;10.062;2023-06-19T05:11:35;14.53;;;8.10;;
9972;SDS011;5027;53.560;10.062;2023-06-19T05:14:02;8.57;;;7.67;;
9972;SDS011;5027;53.560;10.062;2023-06-19T05:16:29;8.53;;;7.73;;
9972;SDS011;5027;53.560;10.062;2023-06-19T05:18:56;8.53;;;7.73;;
9972;SDS011;5027;53.560;10.062;2023-06-19T05:21:23;8.53;;;7.73;;
9972;SDS011;5027;53.560;10.062;2023-06-19T05:23:50;7.97;;;7.37;;
9972;SDS011;5027;53.560;10.062;2023-06-19T05:26:19;8.20;;;7.50;;
9972;SDS011;5027;53.560;10.062;2023-06-19T05:28:46;9.40;;;8.17;;
9972;SDS011;5027;53.560;10.062;2023-06-19T05:31:13;9.20;;;8.17;;
9972;SDS011;5027;53.560;10.062;2023-06-19T05:33:40;8.80;;;8.00;;
9972;SDS011;5027;53.560;10.062;2023-06-19T05:36:07;10.03;;;8.57;;
9972;SDS011;5027;53.560;10.062;2023-06-19T05:38:34;9.93;;;9.03;;
9972;SDS011;5027;53.560;10.062;2023-06-19T05:41:04;9.27;;;8.37;;
9972;SDS011;5027;53.560;10.062;2023-06-19T05:43:31;9.73;;;8.73;;
9972;SDS011;5027;53.560;10.062;2023-06-19T05:45:58;9.47;;;8.10;;
9972;SDS011;5027;53.560;10.062;2023-06-19T05:48:28;9.20;;;8.30;;
9972;SDS011;5027;53.560;10.062;2023-06-19T05:50:55;10.23;;;8.10;;
9972;SDS011;5027;53.560;10.062;2023-06-19T05:53:22;9.23;;;7.80;;
9972;SDS011;5027;53.560;10.062;2023-06-19T05:55:48;10.63;;;7.97;;
9972;SDS011;5027;53.560;10.062;2023-06-19T05:58:16;9.57;;;8.67;;
9972;SDS011;5027;53.560;10.062;2023-06-19T06:00:46;13.07;;;8.20;;
9972;SDS011;5027;53.560;10.062;2023-06-19T06:03:13;9.07;;;8.17;;
9972;SDS011;5027;53.560;10.062;2023-06-19T06:05:40;10.17;;;8.47;;
9972;SDS011;5027;53.560;10.062;2023-06-19T06:08:08;8.93;;;8.03;;
9972;SDS011;5027;53.560;10.062;2023-06-19T06:10:35;8.90;;;8.00;;
9972;SDS011;5027;53.560;10.062;2023-06-19T06:13:01;9.13;;;8.33;;
9972;SDS011;5027;53.560;10.062;2023-06-19T06:15:28;11.83;;;8.83;;
9972;SDS011;5027;53.560;10.062;2023-06-19T06:17:55;8.23;;;7.47;;
9972;SDS011;5027;53.560;10.062;2023-06-19T06:20:21;9.90;;;8.70;;
9972;SDS011;5027;53.560;10.062;2023-06-19T06:22:48;10.67;;;9.67;;
9972;SDS011;5027;53.560;10.062;2023-06-19T06:25:15;12.73;;;8.73;;
9972;SDS011;5027;53.560;10.062;2023-06-19T06:27:42;11.07;;;9.80;;
9972;SDS011;5027;53.560;10.062;2023-06-19T06:30:09;11.97;;;8.97;;
9972;SDS011;5027;53.560;10.062;2023-06-19T06:32:38;11.93;;;9.50;;
9972;SDS011;5027;53.560;10.062;2023-06-19T06:35:05;11.00;;;9.80;;
9972;SDS011;5027;53.560;10.062;2023-06-19T06:37:32;10.37;;;9.27;;
9972;SDS011;5027;53.560;10.062;2023-06-19T06:39:59;13.13;;;9.93;;
9972;SDS011;5027;53.560;10.062;2023-06-19T06:42:25;12.60;;;9.30;;
9972;SDS011;5027;53.560;10.062;2023-06-19T06:44:53;9.90;;;8.90;;
9972;SDS011;5027;53.560;10.062;2023-06-19T06:47:19;10.00;;;9.00;;
9972;SDS011;5027;53.560;10.062;2023-06-19T06:49:46;11.40;;;9.00;;
9972;SDS011;5027;53.560;10.062;2023-06-19T06:52:13;10.73;;;8.87;;
9972;SDS011;5027;53.560;10.062;2023-06-19T06:54:39;10.60;;;8.80;;
9972;SDS011;5027;53.560;10.062;2023-06-19T06:57:06;11.03;;;10.00;;
9972;SDS011;5027;53.560;10.062;2023-06-19T06:59:33;12.30;;;10.83;;
9972;SDS011;5027;53.560;10.062;2023-06-19T07:02:00;12.13;;;10.27;;
9972;SDS011;5027;53.560;10.062;2023-06-19T07:04:27;15.93;;;10.37;;
9972;SDS011;5027;53.560;10.062;2023-06-19T07:06:53;10.23;;;9.13;;
9972;SDS011;5027;53.560;10.062;2023-06-19T07:09:20;14.47;;;10.97;;
9972;SDS011;5027;53.560;10.062;2023-06-19T07:11:50;10.73;;;9.77;;
9972;SDS011;5027;53.560;10.062;2023-06-19T07:14:19;10.03;;;9.10;;
9972;SDS011;5027;53.560;10.062;2023-06-19T07:16:46;12.33;;;10.13;;
9972;SDS011;5027;53.560;10.062;2023-06-19T07:19:12;11.53;;;9.93;;
9972;SDS011;5027;53.560;10.062;2023-06-19T07:21:40;15.67;;;10.07;;
9972;SDS011;5027;53.560;10.062;2023-06-19T07:24:07;12.53;;;10.10;;
9972;SDS011;5027;53.560;10.062;2023-06-19T07:26:34;10.13;;;9.07;;
9972;SDS011;5027;53.560;10.062;2023-06-19T07:29:01;12.27;;;9.00;;
9972;SDS011;5027;53.560;10.062;2023-06-19T07:31:28;15.13;;;9.07;;
9972;SDS011;5027;53.560;10.062;2023-06-19T07:33:54;11.57;;;9.13;;
9972;SDS011;5027;53.560;10.062;2023-06-19T07:36:21;10.77;;;9.67;;
9972;SDS011;5027;53.560;10.062;2023-06-19T07:38:48;13.30;;;9.00;;
9972;SDS011;5027;53.560;10.062;2023-06-19T07:41:15;12.67;;;9.67;;
9972;SDS011;5027;53.560;10.062;2023-06-19T07:43:41;11.97;;;9.87;;
9972;SDS011;5027;53.560;10.062;2023-06-19T07:46:09;16.37;;;10.93;;
9972;SDS011;5027;53.560;10.062;2023-06-19T07:48:36;10.57;;;9.53;;
9972;SDS011;5027;53.560;10.062;2023-06-19T07:51:02;13.90;;;9.30;;
9972;SDS011;5027;53.560;10.062;2023-06-19T07:53:29;9.90;;;8.97;;
9972;SDS011;5027;53.560;10.062;2023-06-19T07:55:56;11.17;;;10.07;;
9972;SDS011;5027;53.560;10.062;2023-06-19T07:58:22;17.07;;;10.07;;
9972;SDS011;5027;53.560;10.062;2023-06-19T08:00:49;11.83;;;10.03;;
9972;SDS011;5027;53.560;10.062;2023-06-19T08:03:16;12.93;;;9.33;;
9972;SDS011;5027;53.560;10.062;2023-06-19T08:05:43;10.33;;;9.03;;
9972;SDS011;5027;53.560;10.062;2023-06-19T08:08:11;13.50;;;9.27;;
9972;SDS011;5027;53.560;10.062;2023-06-19T08:10:38;15.53;;;9.37;;
9972;SDS011;5027;53.560;10.062;2023-06-19T08:13:05;15.17;;;9.63;;
9972;SDS011;5027;53.560;10.062;2023-06-19T08:15:32;10.60;;;8.67;;
9972;SDS011;5027;53.560;10.062;2023-06-19T08:17:58;10.43;;;9.50;;
9972;SDS011;5027;53.560;10.062;2023-06-19T08:20:25;11.53;;;9.63;;
9972;SDS011;5027;53.560;10.062;2023-06-19T08:22:53;10.47;;;9.43;;
9972;SDS011;5027;53.560;10.062;2023-06-19T08:25:19;9.60;;;8.73;;
9972;SDS011;5027;53.560;10.062;2023-06-19T08:27:46;9.73;;;8.73;;
9972;SDS011;5027;53.560;10.062;2023-06-19T08:30:13;10.53;;;9.43;;
9972;SDS011;5027;53.560;10.062;2023-06-19T08:32:39;11.03;;;9.60;;
9972;SDS011;5027;53.560;10.062;2023-06-19T08:35:06;10.80;;;9.77;;
9972;SDS011;5027;53.560;10.062;2023-06-19T08:37:34;9.50;;;8.70;;
9972;SDS011;5027;53.560;10.062;2023-06-19T08:40:00;11.13;;;10.03;;
9972;SDS011;5027;53.560;10.062;2023-06-19T08:42:27;12.47;;;10.50;;
9972;SDS011;5027;53.560;10.062;2023-06-19T08:44:54;12.50;;;9.90;;
9972;SDS011;5027;53.560;10.062;2023-06-19T08:47:20;9.87;;;8.97;;
9972;SDS011;5027;53.560;10.062;2023-06-19T08:49:47;11.40;;;10.20;;
9972;SDS011;5027;53.560;10.062;2023-06-19T08:52:14;11.37;;;10.10;;
9972;SDS011;5027;53.560;10.062;2023-06-19T08:54:40;10.37;;;9.47;;
9972;SDS011;5027;53.560;10.062;2023-06-19T08:57:10;10.27;;;9.30;;
9972;SDS011;5027;53.560;10.062;2023-06-19T08:59:38;10.17;;;9.33;;
9972;SDS011;5027;53.560;10.062;2023-06-19T09:02:05;11.63;;;10.40;;
9972;SDS011;5027;53.560;10.062;2023-06-19T09:04:33;11.63;;;9.90;;
9972;SDS011;5027;53.560;10.062;2023-06-19T09:07:01;10.50;;;9.40;;
9972;SDS011;5027;53.560;10.062;2023-06-19T09:09:43;12.63;;;9.47;;
9972;SDS011;5027;53.560;10.062;2023-06-19T09:12:12;11.50;;;10.37;;
9972;SDS011;5027;53.560;10.062;2023-06-19T09:14:43;10.97;;;9.60;;
9972;SDS011;5027;53.560;10.062;2023-06-19T09:17:11;12.30;;;9.67;;
9972;SDS011;5027;53.560;10.062;2023-06-19T09:19:49;11.00;;;9.80;;
9972;SDS011;5027;53.560;10.062;2023-06-19T09:22:18;14.30;;;10.13;;
9972;SDS011;5027;53.560;10.062;2023-06-19T09:24:47;11.17;;;10.23;;
9972;SDS011;5027;53.560;10.062;2023-06-19T09:27:15;10.00;;;9.00;;
9972;SDS011;5027;53.560;10.062;2023-06-19T09:29:47;11.13;;;10.03;;
9972;SDS011;5027;53.560;10.062;2023-06-19T09:32:16;10.47;;;9.47;;
9972;SDS011;5027;53.560;10.062;2023-06-19T09:34:48;11.33;;;9.40;;
9972;SDS011;5027;53.560;10.062;2023-06-19T09:37:23;11.17;;;10.00;;
9972;SDS011;5027;53.560;10.062;2023-06-19T09:39:52;12.47;;;10.60;;
9972;SDS011;5027;53.560;10.062;2023-06-19T09:42:38;13.37;;;9.63;;
9972;SDS011;5027;53.560;10.062;2023-06-19T09:45:11;11.30;;;10.20;;
9972;SDS011;5027;53.560;10.062;2023-06-19T09:47:45;12.07;;;10.87;;
9972;SDS011;5027;53.560;10.062;2023-06-19T09:50:16;15.33;;;9.83;;
9972;SDS011;5027;53.560;10.062;2023-06-19T09:52:46;11.37;;;10.17;;
9972;SDS011;5027;53.560;10.062;2023-06-19T09:55:13;11.83;;;10.00;;
9972;SDS011;5027;53.560;10.062;2023-06-19T09:57:41;9.97;;;8.97;;
9972;SDS011;5027;53.560;10.062;2023-06-19T10:00:10;12.13;;;10.00;;
9972;SDS011;5027;53.560;10.062;2023-06-19T10:02:39;10.53;;;9.63;;
9972;SDS011;5027;53.560;10.062;2023-06-19T10:05:08;10.83;;;9.83;;
9972;SDS011;5027;53.560;10.062;2023-06-19T10:07:44;10.30;;;9.50;;
9972;SDS011;5027;53.560;10.062;2023-06-19T10:10:21;11.07;;;10.10;;
9972;SDS011;5027;53.560;10.062;2023-06-19T10:12:55;10.17;;;9.27;;
9972;SDS011;5027;53.560;10.062;2023-06-19T10:15:24;10.70;;;9.27;;
9972;SDS011;5027;53.560;10.062;2023-06-19T10:18:00;9.70;;;8.70;;
9972;SDS011;5027;53.560;10.062;2023-06-19T10:20:32;9.87;;;9.10;;
9972;SDS011;5027;53.560;10.062;2023-06-19T10:25:46;11.17;;;10.20;;
9972;SDS011;5027;53.560;10.062;2023-06-19T10:28:18;10.73;;;9.77;;
9972;SDS011;5027;53.560;10.062;2023-06-19T10:30:51;11.53;;;9.43;;
9972;SDS011;5027;53.560;10.062;2023-06-19T10:33:27;13.67;;;9.60;;
9972;SDS011;5027;53.560;10.062;2023-06-19T10:35:55;10.70;;;9.33;;
9972;SDS011;5027;53.560;10.062;2023-06-19T10:38:22;13.83;;;9.00;;
9972;SDS011;5027;53.560;10.062;2023-06-19T10:40:48;10.20;;;9.20;;
9972;SDS011;5027;53.560;10.062;2023-06-19T10:43:21;11.23;;;10.30;;
9972;SDS011;5027;53.560;10.062;2023-06-19T10:45:51;11.27;;;10.03;;
9972;SDS011;5027;53.560;10.062;2023-06-19T10:48:23;10.53;;;9.43;;
9972;SDS011;5027;53.560;10.062;2023-06-19T10:50:51;9.93;;;8.87;;
9972;SDS011;5027;53.560;10.062;2023-06-19T10:55:59;10.83;;;9.83;;
9972;SDS011;5027;53.560;10.062;2023-06-19T10:58:27;10.60;;;9.70;;
9972;SDS011;5027;53.560;10.062;2023-06-19T11:00:55;10.57;;;9.40;;
9972;SDS011;5027;53.560;10.062;2023-06-19T11:03:23;11.43;;;10.00;;
9972;SDS011;5027;53.560;10.062;2023-06-19T11:05:50;10.37;;;8.73;;
9972;SDS011;5027;53.560;10.062;2023-06-19T11:08:20;9.37;;;8.47;;
9972;SDS011;5027;53.560;10.062;2023-06-19T11:10:48;8.30;;;7.53;;
9972;SDS011;5027;53.560;10.062;2023-06-19T11:13:16;10.03;;;8.93;;
9972;SDS011;5027;53.560;10.062;2023-06-19T11:15:45;10.03;;;8.77;;
9972;SDS011;5027;53.560;10.062;2023-06-19T11:18:14;8.93;;;8.13;;
9972;SDS011;5027;53.560;10.062;2023-06-19T11:20:49;8.67;;;7.87;;
9972;SDS011;5027;53.560;10.062;2023-06-19T11:23:24;9.40;;;8.63;;
9972;SDS011;5027;53.560;10.062;2023-06-19T11:26:04;8.53;;;7.83;;
9972;SDS011;5027;53.560;10.062;2023-06-19T11:28:31;8.83;;;7.40;;
9972;SDS011;5027;53.560;10.062;2023-06-19T11:30:59;8.10;;;7.33;;
9972;SDS011;5027;53.560;10.062;2023-06-19T11:33:30;6.00;;;5.60;;
9972;SDS011;5027;53.560;10.062;2023-06-19T11:35:59;10.33;;;9.23;;
9972;SDS011;5027;53.560;10.062;2023-06-19T11:38:27;10.37;;;9.30;;
9972;SDS011;5027;53.560;10.062;2023-06-19T11:40:54;6.47;;;5.97;;
9972;SDS011;5027;53.560;10.062;2023-06-19T11:43:23;4.97;;;4.67;;
9972;SDS011;5027;53.560;10.062;2023-06-19T11:45:51;5.27;;;4.77;;
9972;SDS011;5027;53.560;10.062;2023-06-19T11:48:25;10.63;;;9.63;;
9972;SDS011;5027;53.560;10.062;2023-06-19T11:50:52;5.83;;;5.43;;
9972;SDS011;5027;53.560;10.062;2023-06-19T11:53:20;5.90;;;5.30;;
9972;SDS011;5027;53.560;10.062;2023-06-19T11:55:48;9.97;;;9.03;;
9972;SDS011;5027;53.560;10.062;2023-06-19T11:58:15;5.10;;;4.80;;
9972;SDS011;5027;53.560;10.062;2023-06-19T12:00:42;5.17;;;4.77;;
9972;SDS011;5027;53.560;10.062;2023-06-19T12:03:09;5.47;;;5.07;;
9972;SDS011;5027;53.560;10.062;2023-06-19T12:05:37;6.40;;;5.87;;
9972;SDS011;5027;53.560;10.062;2023-06-19T12:08:04;9.67;;;7.50;;
9972;SDS011;5027;53.560;10.062;2023-06-19T12:10:33;9.77;;;8.03;;
9972;SDS011;5027;53.560;10.062;2023-06-19T12:13:00;5.20;;;4.73;;
9972;SDS011;5027;53.560;10.062;2023-06-19T12:15:27;8.50;;;7.23;;
9972;SDS011;5027;53.560;10.062;2023-06-19T12:17:54;8.90;;;8.07;;
9972;SDS011;5027;53.560;10.062;2023-06-19T12:20:24;5.70;;;5.30;;
9972;SDS011;5027;53.560;10.062;2023-06-19T12:22:52;5.73;;;5.33;;
9972;SDS011;5027;53.560;10.062;2023-06-19T12:25:19;5.80;;;5.40;;
9972;SDS011;5027;53.560;10.062;2023-06-19T12:27:45;8.23;;;7.43;;
9972;SDS011;5027;53.560;10.062;2023-06-19T12:30:12;7.73;;;6.80;;
9972;SDS011;5027;53.560;10.062;2023-06-19T12:32:39;9.67;;;7.33;;
9972;SDS011;5027;53.560;10.062;2023-06-19T12:35:06;7.13;;;6.50;;
9972;SDS011;5027;53.560;10.062;2023-06-19T12:37:33;8.23;;;6.47;;
9972;SDS011;5027;53.560;10.062;2023-06-19T12:40:00;6.17;;;5.67;;
9972;SDS011;5027;53.560;10.062;2023-06-19T12:42:27;5.60;;;5.17;;
9972;SDS011;5027;53.560;10.062;2023-06-19T12:44:53;5.80;;;5.40;;
9972;SDS011;5027;53.560;10.062;2023-06-19T12:47:20;6.33;;;5.73;;
9972;SDS011;5027;53.560;10.062;2023-06-19T12:49:47;5.87;;;5.47;;
9972;SDS011;5027;53.560;10.062;2023-06-19T12:52:14;11.70;;;8.03;;
9972;SDS011;5027;53.560;10.062;2023-06-19T12:54:40;5.30;;;4.90;;
9972;SDS011;5027;53.560;10.062;2023-06-19T12:57:08;6.47;;;5.47;;
9972;SDS011;5027;53.560;10.062;2023-06-19T12:59:35;4.90;;;4.50;;
9972;SDS011;5027;53.560;10.062;2023-06-19T13:02:02;7.47;;;6.37;;
9972;SDS011;5027;53.560;10.062;2023-06-19T13:04:29;6.10;;;5.50;;
9972;SDS011;5027;53.560;10.062;2023-06-19T13:06:56;5.80;;;5.40;;
9972;SDS011;5027;53.560;10.062;2023-06-19T13:09:23;6.70;;;6.10;;
9972;SDS011;5027;53.560;10.062;2023-06-19T13:11:50;4.93;;;4.63;;
9972;SDS011;5027;53.560;10.062;2023-06-19T13:14:17;4.53;;;4.23;;
9972;SDS011;5027;53.560;10.062;2023-06-19T13:16:44;5.67;;;5.27;;
9972;SDS011;5027;53.560;10.062;2023-06-19T13:19:13;4.93;;;4.53;;
9972;SDS011;5027;53.560;10.062;2023-06-19T13:21:41;8.67;;;6.40;;
9972;SDS011;5027;53.560;10.062;2023-06-19T13:24:08;6.33;;;5.73;;
9972;SDS011;5027;53.560;10.062;2023-06-19T13:26:35;5.80;;;5.20;;
9972;SDS011;5027;53.560;10.062;2023-06-19T13:29:01;5.47;;;4.97;;
9972;SDS011;5027;53.560;10.062;2023-06-19T13:31:28;5.97;;;5.47;;
9972;SDS011;5027;53.560;10.062;2023-06-19T13:33:55;5.77;;;5.20;;
9972;SDS011;5027;53.560;10.062;2023-06-19T13:36:22;5.33;;;4.93;;
9972;SDS011;5027;53.560;10.062;2023-06-19T13:38:50;6.07;;;5.50;;
9972;SDS011;5027;53.560;10.062;2023-06-19T13:41:18;7.50;;;5.33;;
9972;SDS011;5027;53.560;10.062;2023-06-19T13:43:45;5.97;;;5.47;;
9972;SDS011;5027;53.560;10.062;2023-06-19T13:46:12;5.57;;;5.17;;
9972;SDS011;5027;53.560;10.062;2023-06-19T13:48:38;7.37;;;5.30;;
9972;SDS011;5027;53.560;10.062;2023-06-19T13:51:05;6.67;;;5.83;;
9972;SDS011;5027;53.560;10.062;2023-06-19T13:53:32;9.03;;;6.13;;
9972;SDS011;5027;53.560;10.062;2023-06-19T13:55:59;6.57;;;5.97;;
9972;SDS011;5027;53.560;10.062;2023-06-19T13:58:26;10.70;;;6.07;;
9972;SDS011;5027;53.560;10.062;2023-06-19T14:00:52;5.57;;;5.17;;
9972;SDS011;5027;53.560;10.062;2023-06-19T14:03:19;5.70;;;5.30;;
9972;SDS011;5027;53.560;10.062;2023-06-19T14:05:46;5.27;;;4.87;;
9972;SDS011;5027;53.560;10.062;2023-06-19T14:08:13;6.70;;;6.07;;
9972;SDS011;5027;53.560;10.062;2023-06-19T14:10:40;6.57;;;5.90;;
9972;SDS011;5027;53.560;10.062;2023-06-19T14:13:06;7.07;;;6.03;;
9972;SDS011;5027;53.560;10.062;2023-06-19T14:15:36;8.13;;;5.97;;
9972;SDS011;5027;53.560;10.062;2023-06-19T14:18:03;7.13;;;5.40;;
9972;SDS011;5027;53.560;10.062;2023-06-19T14:20:30;8.40;;;5.40;;
9972;SDS011;5027;53.560;10.062;2023-06-19T14:22:57;5.70;;;5.20;;
9972;SDS011;5027;53.560;10.062;2023-06-19T14:25:24;10.90;;;6.00;;
9972;SDS011;5027;53.560;10.062;2023-06-19T14:27:50;8.00;;;6.10;;
9972;SDS011;5027;53.560;10.062;2023-06-19T14:30:18;7.70;;;5.47;;
9972;SDS011;5027;53.560;10.062;2023-06-19T14:32:45;5.23;;;4.83;;
9972;SDS011;5027;53.560;10.062;2023-06-19T14:35:11;6.07;;;5.57;;
9972;SDS011;5027;53.560;10.062;2023-06-19T14:37:38;5.17;;;4.77;;
9972;SDS011;5027;53.560;10.062;2023-06-19T14:40:05;4.93;;;4.63;;
9972;SDS011;5027;53.560;10.062;2023-06-19T14:42:32;5.23;;;4.80;;
9972;SDS011;5027;53.560;10.062;2023-06-19T14:44:59;5.53;;;5.13;;
9972;SDS011;5027;53.560;10.062;2023-06-19T14:47:26;5.40;;;5.00;;
9972;SDS011;5027;53.560;10.062;2023-06-19T14:49:53;6.63;;;6.00;;
9972;SDS011;5027;53.560;10.062;2023-06-19T14:52:19;4.73;;;4.33;;
9972;SDS011;5027;53.560;10.062;2023-06-19T14:54:47;5.13;;;4.73;;
9972;SDS011;5027;53.560;10.062;2023-06-19T14:57:14;5.00;;;4.57;;
9972;SDS011;5027;53.560;10.062;2023-06-19T14:59:40;4.70;;;4.40;;
9972;SDS011;5027;53.560;10.062;2023-06-19T15:02:07;5.33;;;4.10;;
9972;SDS011;5027;53.560;10.062;2023-06-19T15:04:34;5.47;;;4.97;;